METAR Data
IDs: Format: Raw Decoded Include TAF

Data at: 0133 UTC 20 Jan 2022

KCOS 200054Z 15010KT 1/4SM R17L/P6000FT -FZDZSN BR OVC002 M07/M08 A3026 RMK AO2 SFC VIS 1 1/4 SLP303 P0000 I1000 T10671083
KCOS 192354Z 16009KT 1/4SM R17L/6000VP6000FT -FZDZSN BR OVC002 M06/M08 A3024 RMK AO2 SFC VIS 3/4 SLP289 PCPN VRY LGT P0000 60000 I1000 I6000 T10611078 11044 21061 53012
KCOS 192254Z 17010KT 1/4SM R17L/1400V2000FT -FZDZSN FZFG VV002 M06/M07 A3022 RMK AO2 SLP280 PCPN VRY LGT P0000 I1000 T10561072
KCOS 192208Z 16009KT 1/4SM R17L/2000V5000FT -FZDZSN FZFG VV002 M06/M07 A3021 RMK AO2 PCPN VRY LGT P0000 I1000 T10561072
KCOS 192154Z 17011KT 1/2SM R17L/4500VP6000FT -FZDZSN FZFG OVC002 M06/M07 A3021 RMK AO2 SLP282 PCPN VRY LGT P0000 I1000 T10561072
KCOS 192054Z 17009KT 1/2SM R17L/5000VP6000FT -FZDZSN BR OVC003 M05/M07 A3019 RMK AO2 SFC VIS 1 SLP271 PCPN VRY LGT P0000 60000 I1000 I3000 T10501067 58003
KCOS 191954Z 16008KT 1SM R17L/P6000FT -FZDZSN BR OVC003 M04/M06 A3020 RMK AO2 SLP264 PCPN VRY LGT P0000 I1000 T10441061
KCOS 191854Z 12007KT 1SM R17L/P6000FT -FZDZSN BR OVC003 M05/M07 A3020 RMK AO2 SLP264 PCPN VRY LGT P0000 I1000 T10501067
KCOS 191754Z 13011KT 1/4SM R17L/5000VP6000FT -FZDZSN BR OVC002 M04/M06 A3020 RMK AO2 SFC VIS 3/4 SLP262 PCPN VRY LGT P0000 60000 I1000 I6000 T10441061 11011 21050 51025
KCOS 191654Z 16008KT 1/4SM R17L/2400V3500FT -FZDZSN FZFG VV002 M04/M06 A3019 RMK AO2 FZDZB43SNB24 SLP255 PCPN VRY LGT P0000 I1000 T10391056
KCOS 191643Z 15008KT 1/4SM R17L/2400VP6000FT -FZDZSN FZFG VV002 M04/M06 A3019 RMK AO2 SFC VIS 1/2 FZDZB43SNB24 PCPN VRY LGT P0000 I1000 T10391056
KCOS 191634Z 14008KT 3/4SM R17L/P6000FT -SN BR OVC003 M04/M06 A3018 RMK AO2 SFC VIS 1 SNB24 PCPN VRY LGT P0000 T10441061
KCOS 191624Z 14007KT 2SM -SN BR OVC003 M04/M06 A3018 RMK AO2 SNB24 PCPN VRY LGT P0000 T10441061
KCOS 191605Z 12007KT 6SM BR OVC003 M04/M07 A3016 RMK AO2 T10441072
KCOS 191554Z 11007KT 8SM OVC005 M04/M08 A3016 RMK AO2 SLP247 PRESRR T10441078
KCOS 191531Z 12008KT 8SM OVC006 M05/M08 A3014 RMK AO2 T10501078
KCOS 191454Z 17012KT 9SM OVC010 M04/M08 A3011 RMK AO2 SLP226 T10441078 51023
KCOS 191354Z 19009KT 10SM FEW050 BKN150 M04/M08 A3008 RMK AO2 SLP211 T10441083
KCOS 191254Z 23007KT 10SM BKN150 M03/M08 A3006 RMK AO2 SLP205 T10281083
KCOS 191154Z 11007KT 10SM BKN150 M01/M08 A3003 RMK AO2 SLP167 T10111078 10039 21028 50004
KCOS 191054Z 08008KT 10SM BKN110 M01/M08 A3003 RMK AO2 SLP161 T10061083
KCOS 190954Z 07003KT 10SM BKN110 M02/M09 A3003 RMK AO2 SLP159 T10221089
KCOS 190854Z 03004KT 10SM BKN110 M01/M09 A3002 RMK AO2 SLP153 T10111094 50010
KCOS 190754Z 08005KT 10SM BKN110 02/M08 A3003 RMK AO2 SLP143 T00221083
KCOS 190654Z VRB04KT 10SM BKN120 BKN170 02/M09 A3002 RMK AO2 SLP141 T00221089 401561011
KCOS 190554Z 34012KT 10SM BKN100 BKN160 03/M09 A2998 RMK AO2 SLP127 T00331089 10106 20028 51019
KCOS 190454Z 33008KT 10SM SCT120 BKN180 03/M10 A2997 RMK AO2 SLP125 T00331100
KCOS 190354Z 32006KT 10SM FEW110 BKN230 03/M12 A2995 RMK AO2 SLP133 T00331122
KCOS 190254Z 36013KT 10SM FEW110 BKN220 04/M12 A2992 RMK AO2 SLP126 T00391122 53020
KCOS 190154Z 04019KT 10SM FEW100 SCT200 05/M14 A2989 RMK AO2 SLP125 T00501144
KCOS 190054Z 03011KT 10SM FEW120 SCT200 03/M15 A2986 RMK AO2 SLP124 T00331150
KCOS 182354Z 07006KT 10SM BKN140 BKN200 11/M17 A2985 RMK AO2 SLP098 ACSL SE-SW T01061172 10156 20106 53006
KCOS 182254Z 06007KT 10SM SCT150 BKN220 13/M19 A2983 RMK AO2 SLP083 ACSL SE-SW T01281189
KCOS 182154Z 05009KT 10SM SCT140 BKN220 14/M18 A2982 RMK AO2 SLP078 T01391178
KCOS 182054Z 04006KT 10SM FEW140 BKN240 14/M18 A2982 RMK AO2 SLP080 T01441183 56014
KCOS 181954Z 04008KT 10SM BKN240 15/M17 A2983 RMK AO2 SLP078 T01501172
KCOS 181854Z 00000KT 10SM BKN240 16/M16 A2984 RMK AO2 SLP079 T01561156
KCOS 181754Z 30005KT 10SM BKN210 14/M14 A2987 RMK AO2 SLP081 T01441139 10144 20000 50008
KCOS 181654Z 35005KT 10SM FEW140 BKN240 13/M11 A2987 RMK AO2 SLP088 T01281106
KCOS 181554Z 34004KT 10SM SCT140 BKN240 08/M10 A2986 RMK AO2 SLP099 T00781100
KCOS 181454Z 34003KT 10SM SCT150 BKN250 06/M11 A2984 RMK AO2 SLP094 CCSL S-SW T00611111 55000
KCOS 181354Z 01008KT 10SM FEW150 BKN250 01/M10 A2984 RMK AO2 SLP103 T00111100